TJIG/SIG METAR and TAF weather

Enter ICAO airport designator
Station Type Date Time Source
TJIG METAR 2021/05/14 21:45 UTC NOAA

TJIG 142145Z 10016KT 10SM SCT030 SCT060 28/23 A2994


Station Type Date Time Source
TJIG Decoded METAR 2021/05/14 21:45 UTC NOAA

Station name not available
May 14, 2021 - 05:45 PM EDT / 2021.05.14 2145 UTC
Wind: from the E (100 degrees) at 18 MPH (16 KT):0
Visibility: 10 mile(s):0
Sky conditions: partly cloudy
Temperature: 82 F (28 C)
Dew Point: 73 F (23 C)
Relative Humidity: 74%
Pressure (altimeter): 29.94 in. Hg (1013 hPa)
ob: TJIG 142145Z 10016KT 10SM SCT030 SCT060 28/23 A2994
cycle: 22

Station Type Date Time Source
TJIG TAF UTC NOAA

Error!

Example: see airport list